createdAt,value
2019-05-03T00:00:19.406Z,7.60
2019-05-03T00:02:54.642Z,7.60
2019-05-03T00:05:32.329Z,7.50
2019-05-03T00:08:06.669Z,7.50
2019-05-03T00:10:42.513Z,7.50
2019-05-03T00:13:16.306Z,7.50
2019-05-03T00:15:52.242Z,7.50
2019-05-03T00:18:26.065Z,7.50
2019-05-03T00:20:59.687Z,7.40
2019-05-03T00:23:33.335Z,7.40
2019-05-03T00:26:07.044Z,7.40
2019-05-03T00:32:28.704Z,7.40
2019-05-03T00:35:03.916Z,7.40
2019-05-03T00:37:39.194Z,7.40
2019-05-03T00:40:14.860Z,7.40
2019-05-03T00:42:48.463Z,7.40
2019-05-03T00:49:08.198Z,7.40
2019-05-03T00:51:42.431Z,7.40
2019-05-03T00:54:16.158Z,7.30
2019-05-03T00:56:49.829Z,7.30
2019-05-03T00:59:23.450Z,7.30
2019-05-03T01:01:57.318Z,7.30
2019-05-03T01:04:31.798Z,7.20
2019-05-03T01:07:05.575Z,7.20
2019-05-03T01:09:39.332Z,7.20
2019-05-03T01:12:13.006Z,7.20
2019-05-03T01:14:48.335Z,7.10
2019-05-03T01:17:22.871Z,7.10
2019-05-03T01:19:56.450Z,7.10
2019-05-03T01:22:31.980Z,7.10
2019-05-03T01:25:08.288Z,7.10
2019-05-03T01:27:42.755Z,7.10
2019-05-03T01:30:16.836Z,7.10
2019-05-03T01:32:52.221Z,7.10
2019-05-03T01:35:25.775Z,7.10
2019-05-03T01:37:59.408Z,7.10
2019-05-03T01:40:33.001Z,7.00
2019-05-03T01:43:06.622Z,7.00
2019-05-03T01:45:42.346Z,7.00
2019-05-03T01:48:23.262Z,6.90
2019-05-03T01:51:02.854Z,6.80
2019-05-03T01:53:38.194Z,6.70
2019-05-03T01:56:11.903Z,6.60
2019-05-03T02:01:45.315Z,6.50
2019-05-03T02:04:29.404Z,6.40
2019-05-03T02:07:03.234Z,6.30
2019-05-03T02:09:36.848Z,6.30
2019-05-03T02:12:10.429Z,6.20
2019-05-03T02:18:22.328Z,6.10
2019-05-03T02:20:56.181Z,6.00
2019-05-03T02:23:31.819Z,5.90
2019-05-03T02:26:05.072Z,5.90
2019-05-03T02:28:38.674Z,5.80
2019-05-03T02:34:49.175Z,5.70
2019-05-03T02:37:22.839Z,5.70
2019-05-03T02:39:57.047Z,5.60
2019-05-03T02:42:30.730Z,5.60
2019-05-03T02:45:09.165Z,5.50
2019-05-03T02:47:47.032Z,5.50
2019-05-03T02:50:20.033Z,5.40
2019-05-03T02:52:55.203Z,5.40
2019-05-03T02:55:29.019Z,5.30
2019-05-03T02:58:05.578Z,5.30
2019-05-03T03:00:56.400Z,5.30
2019-05-03T03:03:31.488Z,5.30
2019-05-03T03:06:06.900Z,5.20
2019-05-03T03:08:45.325Z,5.20
2019-05-03T03:11:19.880Z,5.20
2019-05-03T03:13:56.609Z,5.20
2019-05-03T03:16:35.916Z,5.20
2019-05-03T03:19:08.932Z,5.20
2019-05-03T03:21:46.811Z,5.10
2019-05-03T03:24:25.631Z,5.10
2019-05-03T03:27:00.003Z,5.10
2019-05-03T03:33:19.495Z,5.20
2019-05-03T03:35:57.948Z,5.20
2019-05-03T03:38:28.482Z,5.30
2019-05-03T03:41:05.904Z,5.40
2019-05-03T03:43:39.710Z,5.50
2019-05-03T03:49:51.955Z,5.70
2019-05-03T03:52:27.062Z,5.70
2019-05-03T03:55:02.254Z,5.80
2019-05-03T03:57:36.419Z,5.70
2019-05-03T04:00:11.253Z,5.80
2019-05-03T04:02:45.842Z,5.80
2019-05-03T04:05:19.713Z,5.70
2019-05-03T04:07:55.897Z,5.80
2019-05-03T04:10:28.714Z,5.80
2019-05-03T04:13:05.271Z,5.80
2019-05-03T04:15:49.223Z,5.80
2019-05-03T04:18:27.256Z,5.90
2019-05-03T04:21:01.008Z,5.80
2019-05-03T04:23:35.910Z,5.60
2019-05-03T04:26:10.443Z,5.50
2019-05-03T04:28:45.375Z,5.40
2019-05-03T04:31:19.175Z,5.30
2019-05-03T04:33:56.054Z,5.20
2019-05-03T04:36:28.218Z,5.10
2019-05-03T04:39:01.848Z,5.00
2019-05-03T04:41:35.827Z,5.00
2019-05-03T04:44:09.532Z,5.00
2019-05-03T04:46:43.111Z,5.20
2019-05-03T04:49:16.852Z,5.50
2019-05-03T04:51:50.449Z,5.80
2019-05-03T04:54:35.585Z,5.90
2019-05-03T04:57:09.264Z,5.90
2019-05-03T05:03:09.977Z,5.70
2019-05-03T05:05:45.311Z,5.60
2019-05-03T05:08:18.793Z,5.50
2019-05-03T05:10:52.536Z,5.40
2019-05-03T05:13:26.194Z,5.20
2019-05-03T05:19:55.379Z,4.70
2019-05-03T05:22:35.686Z,4.20
2019-05-03T05:25:14.855Z,4.00
2019-05-03T05:27:58.942Z,3.90
2019-05-03T05:30:32.726Z,3.90
2019-05-03T05:33:07.977Z,3.80
2019-05-03T05:35:44.343Z,3.80
2019-05-03T05:38:18.093Z,3.90
2019-05-03T05:40:51.705Z,4.00
2019-05-03T05:43:25.649Z,4.10
2019-05-03T05:45:59.444Z,4.30
2019-05-03T05:48:37.399Z,4.50
2019-05-03T05:51:13.522Z,4.70
2019-05-03T05:53:46.323Z,4.90
2019-05-03T05:56:27.463Z,4.90
2019-05-03T05:59:08.772Z,5.00
2019-05-03T06:01:45.601Z,5.20
2019-05-03T06:04:19.473Z,5.40
2019-05-03T06:07:09.743Z,5.60
2019-05-03T06:09:51.101Z,5.90
2019-05-03T06:12:42.863Z,7.40
2019-05-03T06:16:20.214Z,9.70
2019-05-03T06:18:55.563Z,12.10
2019-05-03T06:21:36.352Z,14.00
2019-05-03T06:24:14.761Z,15.10
2019-05-03T06:27:05.282Z,16.40
2019-05-03T06:32:26.644Z,17.20
2019-05-03T06:35:00.348Z,16.40
2019-05-03T06:37:35.639Z,15.90
2019-05-03T06:40:09.419Z,16.50
2019-05-03T06:42:52.300Z,16.50
2019-05-03T06:49:06.622Z,16.00
2019-05-03T06:51:44.460Z,14.90
2019-05-03T06:54:15.867Z,13.50
2019-05-03T06:56:49.677Z,12.20
2019-05-03T06:59:25.078Z,11.00
2019-05-03T07:05:37.707Z,9.90
2019-05-03T07:08:29.598Z,9.60
2019-05-03T07:11:05.262Z,10.30
2019-05-03T07:13:39.145Z,12.30
2019-05-03T07:16:14.819Z,14.60
2019-05-03T07:18:48.020Z,15.20
2019-05-03T07:21:21.671Z,14.20
2019-05-03T07:23:56.248Z,13.10
2019-05-03T07:26:29.969Z,12.40
2019-05-03T07:29:05.078Z,12.20
2019-05-03T07:31:38.942Z,11.60
2019-05-03T07:34:12.617Z,11.50
2019-05-03T07:36:47.214Z,11.70
2019-05-03T07:39:20.800Z,11.70
2019-05-03T07:41:55.059Z,11.90
2019-05-03T07:44:28.817Z,11.60
2019-05-03T07:47:04.165Z,11.20
2019-05-03T07:49:37.663Z,11.00
2019-05-03T07:52:11.871Z,11.00
2019-05-03T07:54:45.627Z,11.20
2019-05-03T07:57:25.441Z,11.40
2019-05-03T08:03:48.172Z,12.10
2019-05-03T08:06:21.890Z,12.00
2019-05-03T08:08:55.678Z,11.50
2019-05-03T08:11:29.343Z,11.30
2019-05-03T08:14:04.991Z,11.20
2019-05-03T08:20:17.110Z,11.70
2019-05-03T08:22:50.848Z,12.00
2019-05-03T08:25:24.994Z,12.00
2019-05-03T08:27:58.752Z,11.20
2019-05-03T08:30:50.520Z,10.50
2019-05-03T08:33:29.006Z,10.50
2019-05-03T08:36:04.746Z,10.70
2019-05-03T08:38:38.104Z,10.60
2019-05-03T08:41:14.541Z,10.60
2019-05-03T08:43:48.355Z,10.90
2019-05-03T08:46:22.076Z,11.50
2019-05-03T08:48:55.806Z,11.80
2019-05-03T08:51:29.484Z,11.70
2019-05-03T08:54:04.737Z,12.20
2019-05-03T08:56:38.560Z,12.40
2019-05-03T08:59:12.152Z,12.20
2019-05-03T09:01:46.038Z,11.80
2019-05-03T09:04:19.629Z,11.70
2019-05-03T09:06:55.092Z,11.70
2019-05-03T09:09:35.682Z,11.90
2019-05-03T09:12:09.450Z,11.80
2019-05-03T09:14:46.434Z,12.00
2019-05-03T09:17:18.324Z,11.60
2019-05-03T09:19:51.925Z,11.10
2019-05-03T09:22:25.974Z,11.00
2019-05-03T09:24:59.551Z,11.40
2019-05-03T09:27:34.430Z,11.40
2019-05-03T09:30:08.630Z,11.20
2019-05-03T09:32:44.610Z,11.30
2019-05-03T09:35:29.635Z,11.00
2019-05-03T09:37:55.389Z,10.60
2019-05-03T09:40:28.528Z,10.30
2019-05-03T09:43:04.332Z,9.90
2019-05-03T09:49:16.385Z,9.40
2019-05-03T09:51:49.316Z,9.70
2019-05-03T10:13:27.115Z,19.40
2019-05-03T10:16:00.413Z,16.80
2019-05-03T10:18:34.971Z,15.20
2019-05-03T10:21:08.552Z,14.00
2019-05-03T10:23:42.400Z,13.10
2019-05-03T10:26:16.221Z,12.50
2019-05-03T10:28:50.591Z,11.20
2019-05-03T10:31:25.911Z,10.90
2019-05-03T10:34:01.436Z,11.20
2019-05-03T10:36:35.614Z,11.30
2019-05-03T10:39:09.563Z,11.60
2019-05-03T10:41:45.214Z,11.20
2019-05-03T10:44:19.460Z,11.00
2019-05-03T10:46:53.266Z,10.80
2019-05-03T10:49:26.910Z,10.90
2019-05-03T10:52:02.226Z,10.80
2019-05-03T10:54:36.040Z,10.90
2019-05-03T10:57:11.328Z,11.00
2019-05-03T10:59:45.020Z,10.90
2019-05-03T11:02:29.168Z,10.20
2019-05-03T11:05:05.131Z,10.20
2019-05-03T11:07:38.535Z,10.30
2019-05-03T11:10:12.298Z,10.20
2019-05-03T11:12:46.211Z,10.00
2019-05-03T11:15:19.895Z,9.40
2019-05-03T11:17:54.911Z,9.10
2019-05-03T11:20:36.214Z,9.00
2019-05-03T11:23:09.988Z,9.10
2019-05-03T11:25:45.198Z,9.50
2019-05-03T11:28:24.911Z,9.70
2019-05-03T11:31:02.430Z,9.90
2019-05-03T11:33:39.879Z,9.80
2019-05-03T11:36:18.200Z,10.00
2019-05-03T11:38:52.186Z,10.20
2019-05-03T11:41:32.038Z,10.40
2019-05-03T11:44:04.328Z,10.70
2019-05-03T11:46:37.964Z,10.60
2019-05-03T11:49:11.653Z,10.50
2019-05-03T11:51:45.260Z,10.50
2019-05-03T11:54:19.039Z,10.60
2019-05-03T11:56:53.007Z,10.50
2019-05-03T11:59:26.993Z,10.00
2019-05-03T12:02:10.981Z,9.70
2019-05-03T12:04:45.862Z,9.50
2019-05-03T12:07:39.115Z,9.40
2019-05-03T12:10:17.721Z,9.40
2019-05-03T12:12:50.624Z,9.30
2019-05-03T12:15:24.351Z,9.40
2019-05-03T12:17:59.886Z,9.60
2019-05-03T12:20:37.015Z,9.50
2019-05-03T12:23:10.095Z,9.50
2019-05-03T12:25:45.895Z,9.40
2019-05-03T12:28:20.097Z,9.40
2019-05-03T12:30:53.727Z,9.50
2019-05-03T12:33:27.343Z,9.50
2019-05-03T12:36:00.961Z,9.40
2019-05-03T12:38:35.044Z,9.50
2019-05-03T12:41:08.946Z,9.50
2019-05-03T12:43:42.614Z,9.40
2019-05-03T12:46:16.871Z,9.30
2019-05-03T12:48:50.666Z,9.40
2019-05-03T12:51:25.183Z,9.40
2019-05-03T12:53:59.083Z,9.50
2019-05-03T12:56:35.670Z,9.50
2019-05-03T12:59:09.594Z,9.40
2019-05-03T13:01:45.435Z,9.40
2019-05-03T13:04:32.693Z,9.30
2019-05-03T13:07:24.057Z,9.10
2019-05-03T13:09:57.755Z,9.00
2019-05-03T13:12:31.353Z,8.80
2019-05-03T13:15:07.347Z,8.80
2019-05-03T13:17:41.067Z,8.70
2019-05-03T13:20:15.881Z,8.70
2019-05-03T13:22:49.564Z,8.70
2019-05-03T13:25:23.227Z,8.90
2019-05-03T13:27:56.844Z,8.80
2019-05-03T13:30:30.515Z,8.80
2019-05-03T13:33:05.850Z,8.80
2019-05-03T13:35:39.569Z,8.70
2019-05-03T13:38:13.329Z,8.70
2019-05-03T13:40:47.237Z,8.70
2019-05-03T13:43:20.832Z,8.50
2019-05-03T13:45:55.634Z,8.60
2019-05-03T13:48:41.620Z,8.60
2019-05-03T13:51:05.258Z,8.80
2019-05-03T13:53:39.169Z,9.00
2019-05-03T13:56:15.148Z,9.00
2019-05-03T13:58:48.203Z,9.00
2019-05-03T14:01:21.832Z,8.80
2019-05-03T14:03:55.489Z,8.70
2019-05-03T14:06:29.100Z,8.70
2019-05-03T14:09:02.741Z,8.50
2019-05-03T14:11:36.479Z,8.50
2019-05-03T14:14:10.172Z,8.70
2019-05-03T14:20:50.063Z,8.90
2019-05-03T14:23:25.312Z,8.90
2019-05-03T14:25:59.142Z,9.00
2019-05-03T14:28:34.617Z,9.00
2019-05-03T14:31:08.592Z,9.10
2019-05-03T14:37:28.513Z,9.20
2019-05-03T14:40:02.121Z,9.40
2019-05-03T14:42:35.879Z,9.50
2019-05-03T14:45:09.529Z,9.40
2019-05-03T14:47:43.171Z,9.30
2019-05-03T14:50:17.013Z,9.30
2019-05-03T14:52:50.701Z,9.30
2019-05-03T14:55:31.445Z,9.20
2019-05-03T14:58:17.498Z,9.20
2019-05-03T15:00:59.298Z,9.20
2019-05-03T15:03:34.762Z,9.00
2019-05-03T15:06:08.213Z,8.90
2019-05-03T15:08:41.978Z,8.90
2019-05-03T15:11:15.566Z,9.00
2019-05-03T15:13:49.177Z,9.00
2019-05-03T15:16:24.900Z,9.00
2019-05-03T15:18:58.257Z,9.00
2019-05-03T15:21:31.881Z,8.90
2019-05-03T15:24:05.548Z,8.90
2019-05-03T15:26:39.276Z,8.90
2019-05-03T15:29:12.909Z,8.90
2019-05-03T15:31:46.540Z,9.00
2019-05-03T15:34:20.167Z,8.90
2019-05-03T15:36:54.723Z,8.80
2019-05-03T15:39:28.477Z,8.90
2019-05-03T15:42:02.168Z,9.00
2019-05-03T15:44:54.397Z,8.90
2019-05-03T15:51:04.943Z,8.80
2019-05-03T15:53:38.475Z,8.80
2019-05-03T15:56:12.269Z,8.70
2019-05-03T15:58:46.948Z,8.80
2019-05-03T16:01:20.649Z,8.80
2019-05-03T16:07:31.375Z,8.80
2019-05-03T16:10:06.363Z,8.90
2019-05-03T16:12:40.045Z,9.00
2019-05-03T16:15:13.772Z,9.10
2019-05-03T16:17:47.462Z,9.20
2019-05-03T16:20:22.294Z,9.20
2019-05-03T16:22:56.008Z,9.20
2019-05-03T16:25:29.659Z,9.20
2019-05-03T16:28:05.176Z,9.10
2019-05-03T16:30:45.292Z,9.10
2019-05-03T16:33:27.075Z,9.20
2019-05-03T16:35:54.892Z,9.20
2019-05-03T16:38:28.658Z,9.20
2019-05-03T16:41:02.262Z,9.10
2019-05-03T16:43:35.936Z,9.00
2019-05-03T16:46:09.610Z,8.90
2019-05-03T16:48:44.811Z,8.90
2019-05-03T16:51:18.783Z,8.80
2019-05-03T16:53:52.358Z,8.80
2019-05-03T16:56:25.971Z,8.80
2019-05-03T16:58:59.656Z,8.80
2019-05-03T17:01:35.080Z,8.80
2019-05-03T17:04:25.457Z,8.70
2019-05-03T17:07:06.641Z,8.80
2019-05-03T17:09:58.448Z,8.70
2019-05-03T17:12:36.353Z,8.70
2019-05-03T17:15:10.285Z,8.70
2019-05-03T17:21:07.127Z,8.70
2019-05-03T17:23:40.771Z,8.50
2019-05-03T17:26:14.945Z,8.50
2019-05-03T17:28:49.704Z,8.50
2019-05-03T17:31:24.366Z,8.40
2019-05-03T17:37:35.357Z,8.20
2019-05-03T17:40:11.124Z,8.20
2019-05-03T17:42:55.753Z,8.10
2019-05-03T17:45:30.982Z,8.00
2019-05-03T17:48:04.890Z,8.00
2019-05-03T17:50:38.586Z,7.90
2019-05-03T17:53:14.708Z,7.90
2019-05-03T17:56:06.714Z,7.80
2019-05-03T17:58:42.066Z,7.70
2019-05-03T18:01:35.250Z,7.60
2019-05-03T18:04:19.688Z,7.50
2019-05-03T18:06:58.013Z,7.40
2019-05-03T18:09:34.633Z,7.30
2019-05-03T18:12:08.416Z,7.20
2019-05-03T18:14:42.020Z,7.10
2019-05-03T18:17:15.618Z,7.00
2019-05-03T18:19:49.235Z,6.90
2019-05-03T18:22:24.337Z,6.90
2019-05-03T18:24:58.151Z,6.90
2019-05-03T18:27:31.746Z,6.80
2019-05-03T18:30:09.143Z,6.70
2019-05-03T18:36:19.638Z,6.50
2019-05-03T18:38:55.050Z,6.40
2019-05-03T18:41:28.748Z,6.30
2019-05-03T18:44:05.182Z,6.30
2019-05-03T18:46:44.595Z,6.20
2019-05-03T18:53:04.697Z,6.00
2019-05-03T18:55:38.424Z,5.90
2019-05-03T18:58:12.074Z,5.80
2019-05-03T19:00:45.905Z,5.80
2019-05-03T19:03:19.543Z,5.70
2019-05-03T19:05:54.851Z,5.60
2019-05-03T19:08:42.250Z,5.50
2019-05-03T19:11:26.735Z,5.50
2019-05-03T19:14:02.262Z,5.50
2019-05-03T19:16:40.328Z,5.40
2019-05-03T19:19:15.754Z,5.40
2019-05-03T19:21:49.396Z,5.40
2019-05-03T19:24:24.562Z,5.40
2019-05-03T19:26:58.375Z,5.30
2019-05-03T19:29:31.964Z,5.20
2019-05-03T19:32:05.743Z,5.20
2019-05-03T19:34:50.170Z,5.20
2019-05-03T19:37:14.696Z,5.20
2019-05-03T19:39:48.367Z,5.10
2019-05-03T19:42:22.071Z,5.10
2019-05-03T19:44:55.673Z,5.10
2019-05-03T19:47:29.280Z,5.00
2019-05-03T19:50:04.959Z,5.00
2019-05-03T19:52:39.954Z,4.90
2019-05-03T19:55:15.411Z,4.90
2019-05-03T19:57:49.122Z,4.90
2019-05-03T20:00:25.567Z,4.80
2019-05-03T20:06:49.677Z,4.70
2019-05-03T20:09:24.908Z,4.70
2019-05-03T20:11:58.938Z,4.70
2019-05-03T20:14:32.513Z,4.70
2019-05-03T20:17:06.756Z,4.70
2019-05-03T20:23:16.481Z,4.60
2019-05-03T20:25:50.067Z,4.60
2019-05-03T20:28:24.727Z,4.70
2019-05-03T20:30:58.398Z,4.70
2019-05-03T20:33:32.309Z,4.60
2019-05-03T20:36:05.989Z,4.60
2019-05-03T20:38:39.631Z,4.60
2019-05-03T20:41:14.853Z,4.60
2019-05-03T20:43:50.313Z,4.60
2019-05-03T20:46:28.182Z,4.60
2019-05-03T20:49:04.347Z,4.60
2019-05-03T20:51:37.939Z,4.60
2019-05-03T20:54:11.587Z,4.60
2019-05-03T20:56:45.680Z,4.60
2019-05-03T20:59:19.330Z,4.60
2019-05-03T21:01:54.661Z,4.60
2019-05-03T21:04:28.276Z,4.60
2019-05-03T21:07:01.898Z,4.60
2019-05-03T21:09:35.556Z,4.60
2019-05-03T21:12:09.179Z,4.70
2019-05-03T21:14:42.805Z,4.60
2019-05-03T21:17:34.578Z,4.70
2019-05-03T21:20:10.135Z,4.70
2019-05-03T21:22:45.432Z,4.80
2019-05-03T21:25:20.717Z,4.80
2019-05-03T21:27:55.508Z,4.90
2019-05-03T21:30:29.273Z,4.90
2019-05-03T21:36:21.753Z,5.00
2019-05-03T21:38:55.333Z,5.00
2019-05-03T21:41:28.944Z,4.90
2019-05-03T21:44:04.718Z,4.90
2019-05-03T21:46:39.752Z,4.80
2019-05-03T21:52:50.072Z,4.50
2019-05-03T21:55:24.774Z,4.40
2019-05-03T21:57:58.556Z,4.30
2019-05-03T22:00:46.114Z,4.30
2019-05-03T22:03:19.882Z,4.20
2019-05-03T22:05:57.414Z,4.10
2019-05-03T22:08:28.749Z,4.10
2019-05-03T22:11:02.401Z,4.10
2019-05-03T22:13:36.690Z,4.10
2019-05-03T22:16:11.924Z,4.00
2019-05-03T22:18:45.656Z,4.00
2019-05-03T22:21:23.542Z,4.00
2019-05-03T22:24:14.767Z,4.00
2019-05-03T22:26:55.932Z,4.00
2019-05-03T22:29:29.689Z,4.00
2019-05-03T22:32:05.152Z,4.00
2019-05-03T22:34:38.658Z,4.00
2019-05-03T22:37:14.285Z,4.00
2019-05-03T22:39:47.817Z,4.00
2019-05-03T22:42:21.492Z,4.00
2019-05-03T22:44:55.427Z,4.00
2019-05-03T22:47:29.131Z,4.00
2019-05-03T22:50:02.719Z,4.00
2019-05-03T22:52:36.375Z,3.90
2019-05-03T22:55:10.477Z,4.00
2019-05-03T22:57:44.150Z,3.90
2019-05-03T23:00:17.864Z,4.00
2019-05-03T23:02:51.590Z,3.90
2019-05-03T23:05:25.223Z,3.90
2019-05-03T23:07:58.842Z,3.90
2019-05-03T23:10:34.720Z,3.90
2019-05-03T23:13:07.699Z,4.00
2019-05-03T23:15:41.324Z,4.00
2019-05-03T23:18:16.283Z,4.00
2019-05-03T23:21:07.971Z,4.00
2019-05-03T23:23:50.243Z,4.00
2019-05-03T23:26:25.427Z,4.00
2019-05-03T23:28:59.240Z,4.00
2019-05-03T23:31:34.392Z,3.90
2019-05-03T23:37:45.055Z,3.90
2019-05-03T23:40:18.865Z,3.90
2019-05-03T23:42:54.208Z,3.90
2019-05-03T23:45:27.731Z,3.90
2019-05-03T23:48:01.321Z,4.00
2019-05-03T23:54:12.156Z,4.10
2019-05-03T23:56:45.982Z,4.20
2019-05-03T23:59:19.879Z,4.20
